Terminal Aerodrome Forecast
Issued by NWS

Current Version | Previous Version | Text Only | Print | Product List | Glossary Off
Versions: 1 2 3 4 5 6 7 8 9 10 11 12 13 14 15 16 17 18 19 20 21 22 23

000
FTUS41 KRLX 221300 AAA
TAFCKB
TAF AMD
KCKB 221305Z 2213/2312 31006KT P6SM OVC015
     FM221800 32006KT P6SM OVC025
     FM222100 33006KT P6SM BKN025
     FM230400 33006KT 6SM BR BKN025
     FM230800 30005KT 4SM BR BKN020=

USA.gov is the U.S. government's official web portal to all federal, state and local government web resources and services.